Strona główna
METAR-TAF:

METAR-TAF

Lotnisko :

Niagara Falls, Nowy Jork, Stany Zjednoczone

Szerokość geograficzna: 43-06-26N, Długość geograficzna: 078-56-43W, wysokość: 180 m

Aktualna obserwacja pogody

Raport powstał 34 minut temu, godzina 16:53 UTC
Wiatr 9 kt od zachodnio-południowy zachód
Temperatura 29°C
Wilgotność 48%
Ciśnienie 1014 hPa
Widzialność: 16.1 km
Mało chmury na wysokości 10000 ft

METAR: KIAG 261653Z 24009KT 10SM FEW100 29/17 A2994 RMK AO2 SLP131 T02890172

czas: 13:27 (17:27 UTC)

Prognoza

Raport powstał 3 godziny i 17 minut temu, godzina 14:10 UTC
Prognoza ważna od 26 godzina 14 UTC do 27 godzina 12 UTC
Wiatr 10 kt od zachodnio-południowy zachód
Widzialność: 10 km
bezchmurnie
Od 26 godzina 1900 UTC
Wiatr 10 kt od południowy zachód
Widzialność: 10 km
Rozproszone chmury na wysokości 5000 ft
Od 27 godzina 0200 UTC
Wiatr 5 kt od południowy zachód
Widzialność: 10 km
Rozproszone chmury na wysokości 25000 ft

TAF: KIAG 261410Z 2614/2712 25010KT P6SM SKC FM261900 23010KT P6SM SCT050 FM270200 23005KT P6SM SCT250

Obserwacja i prognoza pogody dla ponad 4000 lotnisk (raport METAR i TAF).

Dostępne stacje oznaczono żółtymi i czerwonymi punktami na mapie.

Najedź kursorem aby zobaczyć nazwę stacji.

Kliknij aby zobaczyć obserwacje i prognozy pogody.

Aby zmienić mapę: kliknij na zielony przycisk z czarnym krzyżykiem, aby powiększyć; na zielony przycisk z myślnikiem, aby pomniejszyć; na zielone strzałki, aby przejść do map sąsiednich.


METAR-TAF: